sensor_id;sensor_type;location;lat;lon;timestamp;temperature;humidity
43227;DHT22;28839;52.404;9.808;2023-04-01T00:05:51;9.50;99.90
43227;DHT22;28839;52.404;9.808;2023-04-01T00:12:45;9.50;99.90
43227;DHT22;28839;52.404;9.808;2023-04-01T00:19:40;9.60;99.90
43227;DHT22;28839;52.404;9.808;2023-04-01T00:26:34;9.50;99.90
43227;DHT22;28839;52.404;9.808;2023-04-01T00:33:28;9.50;99.90
43227;DHT22;28839;52.404;9.808;2023-04-01T00:40:25;9.50;99.90
43227;DHT22;28839;52.404;9.808;2023-04-01T00:47:20;9.60;99.90
43227;DHT22;28839;52.404;9.808;2023-04-01T00:54:15;9.60;99.90
43227;DHT22;28839;52.404;9.808;2023-04-01T01:01:11;9.50;99.90
43227;DHT22;28839;52.404;9.808;2023-04-01T01:08:10;9.50;99.90
43227;DHT22;28839;52.404;9.808;2023-04-01T01:15:14;9.50;99.90
43227;DHT22;28839;52.404;9.808;2023-04-01T01:29:54;9.40;99.90
43227;DHT22;28839;52.404;9.808;2023-04-01T01:36:58;9.50;99.90
43227;DHT22;28839;52.404;9.808;2023-04-01T01:43:55;9.40;99.90
43227;DHT22;28839;52.404;9.808;2023-04-01T01:50:50;9.30;99.90
43227;DHT22;28839;52.404;9.808;2023-04-01T01:57:46;9.30;99.90
43227;DHT22;28839;52.404;9.808;2023-04-01T02:04:41;9.30;99.90
43227;DHT22;28839;52.404;9.808;2023-04-01T02:11:41;9.20;99.90
43227;DHT22;28839;52.404;9.808;2023-04-01T02:18:39;9.20;99.90
43227;DHT22;28839;52.404;9.808;2023-04-01T02:25:36;9.10;99.90
43227;DHT22;28839;52.404;9.808;2023-04-01T02:32:31;9.20;99.90
43227;DHT22;28839;52.404;9.808;2023-04-01T02:39:28;9.10;99.90
43227;DHT22;28839;52.404;9.808;2023-04-01T02:46:22;9.20;99.90
43227;DHT22;28839;52.404;9.808;2023-04-01T02:53:16;9.10;99.90
43227;DHT22;28839;52.404;9.808;2023-04-01T03:00:13;9.10;99.90
43227;DHT22;28839;52.404;9.808;2023-04-01T03:07:07;9.20;99.90
43227;DHT22;28839;52.404;9.808;2023-04-01T03:14:02;9.20;99.90
43227;DHT22;28839;52.404;9.808;2023-04-01T03:20:57;9.20;99.90
43227;DHT22;28839;52.404;9.808;2023-04-01T03:28:05;9.10;99.90
43227;DHT22;28839;52.404;9.808;2023-04-01T03:34:58;9.10;99.90
43227;DHT22;28839;52.404;9.808;2023-04-01T03:41:54;9.10;99.90
43227;DHT22;28839;52.404;9.808;2023-04-01T03:48:47;9.10;99.90
43227;DHT22;28839;52.404;9.808;2023-04-01T03:55:41;9.10;99.90
43227;DHT22;28839;52.404;9.808;2023-04-01T04:02:36;8.90;99.90
43227;DHT22;28839;52.404;9.808;2023-04-01T04:09:30;9.00;99.90
43227;DHT22;28839;52.404;9.808;2023-04-01T04:16:24;8.90;99.90
43227;DHT22;28839;52.404;9.808;2023-04-01T04:23:20;8.90;99.90
43227;DHT22;28839;52.404;9.808;2023-04-01T04:30:14;8.90;99.90
43227;DHT22;28839;52.404;9.808;2023-04-01T04:37:08;8.90;99.90
43227;DHT22;28839;52.404;9.808;2023-04-01T04:44:03;8.90;99.90
43227;DHT22;28839;52.404;9.808;2023-04-01T04:50:57;8.90;99.90
43227;DHT22;28839;52.404;9.808;2023-04-01T04:57:51;8.80;99.90
43227;DHT22;28839;52.404;9.808;2023-04-01T05:04:46;8.90;99.90
43227;DHT22;28839;52.404;9.808;2023-04-01T05:11:40;8.90;99.90
43227;DHT22;28839;52.404;9.808;2023-04-01T05:18:34;8.90;99.90
43227;DHT22;28839;52.404;9.808;2023-04-01T05:25:29;8.80;99.90
43227;DHT22;28839;52.404;9.808;2023-04-01T05:32:23;8.80;99.90
43227;DHT22;28839;52.404;9.808;2023-04-01T05:39:17;8.80;99.90
43227;DHT22;28839;52.404;9.808;2023-04-01T05:46:12;9.00;99.90
43227;DHT22;28839;52.404;9.808;2023-04-01T05:53:06;8.90;99.90
43227;DHT22;28839;52.404;9.808;2023-04-01T06:00:00;8.90;99.90
43227;DHT22;28839;52.404;9.808;2023-04-01T06:06:55;9.10;99.90
43227;DHT22;28839;52.404;9.808;2023-04-01T06:14:05;9.10;99.90
43227;DHT22;28839;52.404;9.808;2023-04-01T06:21:07;9.20;99.90
43227;DHT22;28839;52.404;9.808;2023-04-01T06:35:49;9.40;99.90
43227;DHT22;28839;52.404;9.808;2023-04-01T06:42:55;9.50;99.90
43227;DHT22;28839;52.404;9.808;2023-04-01T06:49:59;9.60;99.90
43227;DHT22;28839;52.404;9.808;2023-04-01T06:56:59;9.80;99.90
43227;DHT22;28839;52.404;9.808;2023-04-01T07:03:58;9.90;99.90
43227;DHT22;28839;52.404;9.808;2023-04-01T07:10:58;10.00;99.90
43227;DHT22;28839;52.404;9.808;2023-04-01T07:17:57;10.20;99.90
43227;DHT22;28839;52.404;9.808;2023-04-01T07:24:53;10.10;99.90
43227;DHT22;28839;52.404;9.808;2023-04-01T07:32:14;10.30;99.90
43227;DHT22;28839;52.404;9.808;2023-04-01T07:39:26;10.40;99.90
43227;DHT22;28839;52.404;9.808;2023-04-01T07:46:39;10.30;99.90
43227;DHT22;28839;52.404;9.808;2023-04-01T07:53:41;10.30;99.90
43227;DHT22;28839;52.404;9.808;2023-04-01T08:00:44;10.40;99.90
43227;DHT22;28839;52.404;9.808;2023-04-01T08:07:45;10.50;99.90
43227;DHT22;28839;52.404;9.808;2023-04-01T08:14:52;10.60;99.90
43227;DHT22;28839;52.404;9.808;2023-04-01T08:21:51;11.00;99.90
43227;DHT22;28839;52.404;9.808;2023-04-01T08:28:50;11.00;99.90
43227;DHT22;28839;52.404;9.808;2023-04-01T08:35:50;11.20;99.90
43227;DHT22;28839;52.404;9.808;2023-04-01T08:42:59;12.10;99.90
43227;DHT22;28839;52.404;9.808;2023-04-01T08:50:31;12.40;99.90
43227;DHT22;28839;52.404;9.808;2023-04-01T08:57:40;11.60;99.90
43227;DHT22;28839;52.404;9.808;2023-04-01T09:04:50;11.80;99.90
43227;DHT22;28839;52.404;9.808;2023-04-01T09:12:11;11.80;99.90
43227;DHT22;28839;52.404;9.808;2023-04-01T09:19:15;11.60;99.90
43227;DHT22;28839;52.404;9.808;2023-04-01T09:26:33;12.00;99.90
43227;DHT22;28839;52.404;9.808;2023-04-01T09:33:53;11.50;99.90
43227;DHT22;28839;52.404;9.808;2023-04-01T09:40:56;11.50;99.90
43227;DHT22;28839;52.404;9.808;2023-04-01T09:48:02;11.60;99.90
43227;DHT22;28839;52.404;9.808;2023-04-01T09:55:14;11.30;99.90
43227;DHT22;28839;52.404;9.808;2023-04-01T10:02:40;11.30;99.90
43227;DHT22;28839;52.404;9.808;2023-04-01T10:10:04;11.40;99.90
43227;DHT22;28839;52.404;9.808;2023-04-01T10:17:20;11.60;99.90
43227;DHT22;28839;52.404;9.808;2023-04-01T10:40:12;11.50;99.90
43227;DHT22;28839;52.404;9.808;2023-04-01T10:54:40;11.50;99.90
43227;DHT22;28839;52.404;9.808;2023-04-01T11:02:00;11.40;99.90
43227;DHT22;28839;52.404;9.808;2023-04-01T11:17:06;11.20;99.90
43227;DHT22;28839;52.404;9.808;2023-04-01T11:24:21;11.60;99.90
43227;DHT22;28839;52.404;9.808;2023-04-01T11:31:29;11.60;99.90
43227;DHT22;28839;52.404;9.808;2023-04-01T11:38:44;11.70;99.90
43227;DHT22;28839;52.404;9.808;2023-04-01T11:45:43;11.40;99.90
43227;DHT22;28839;52.404;9.808;2023-04-01T12:00:28;11.80;99.90
43227;DHT22;28839;52.404;9.808;2023-04-01T12:07:56;11.70;99.90
43227;DHT22;28839;52.404;9.808;2023-04-01T12:15:04;11.90;99.90
43227;DHT22;28839;52.404;9.808;2023-04-01T12:22:19;11.90;99.90
43227;DHT22;28839;52.404;9.808;2023-04-01T12:36:54;12.90;99.90
43227;DHT22;28839;52.404;9.808;2023-04-01T12:44:30;12.80;99.90
43227;DHT22;28839;52.404;9.808;2023-04-01T12:51:50;12.70;99.90
43227;DHT22;28839;52.404;9.808;2023-04-01T12:59:14;12.70;99.90
43227;DHT22;28839;52.404;9.808;2023-04-01T13:06:53;12.80;99.90
43227;DHT22;28839;52.404;9.808;2023-04-01T13:21:26;12.70;99.90
43227;DHT22;28839;52.404;9.808;2023-04-01T13:28:25;12.50;99.90
43227;DHT22;28839;52.404;9.808;2023-04-01T13:35:30;12.60;99.90
43227;DHT22;28839;52.404;9.808;2023-04-01T13:42:31;12.10;99.90
43227;DHT22;28839;52.404;9.808;2023-04-01T13:49:56;10.50;99.90
43227;DHT22;28839;52.404;9.808;2023-04-01T13:57:02;10.10;99.90
43227;DHT22;28839;52.404;9.808;2023-04-01T14:04:34;9.90;99.90
43227;DHT22;28839;52.404;9.808;2023-04-01T14:11:41;9.80;99.90
43227;DHT22;28839;52.404;9.808;2023-04-01T14:18:59;9.70;99.90
43227;DHT22;28839;52.404;9.808;2023-04-01T14:26:10;9.60;99.90
43227;DHT22;28839;52.404;9.808;2023-04-01T14:33:25;9.40;99.90
43227;DHT22;28839;52.404;9.808;2023-04-01T14:40:26;9.50;99.90
43227;DHT22;28839;52.404;9.808;2023-04-01T14:47:43;9.30;99.90
43227;DHT22;28839;52.404;9.808;2023-04-01T14:54:41;9.20;99.90
43227;DHT22;28839;52.404;9.808;2023-04-01T15:01:43;9.10;99.90
43227;DHT22;28839;52.404;9.808;2023-04-01T15:08:49;8.90;99.90
43227;DHT22;28839;52.404;9.808;2023-04-01T15:15:58;8.60;99.90
43227;DHT22;28839;52.404;9.808;2023-04-01T15:23:02;8.50;99.90
43227;DHT22;28839;52.404;9.808;2023-04-01T15:37:26;8.60;99.90
43227;DHT22;28839;52.404;9.808;2023-04-01T15:44:44;8.20;99.90
43227;DHT22;28839;52.404;9.808;2023-04-01T15:51:58;8.00;99.90
43227;DHT22;28839;52.404;9.808;2023-04-01T15:59:09;7.90;99.90
43227;DHT22;28839;52.404;9.808;2023-04-01T16:13:36;7.80;99.90
43227;DHT22;28839;52.404;9.808;2023-04-01T16:20:45;7.60;99.90
43227;DHT22;28839;52.404;9.808;2023-04-01T16:27:46;7.30;99.90
43227;DHT22;28839;52.404;9.808;2023-04-01T16:34:44;7.40;99.90
43227;DHT22;28839;52.404;9.808;2023-04-01T16:41:48;7.30;99.90
43227;DHT22;28839;52.404;9.808;2023-04-01T16:48:57;7.20;99.90
43227;DHT22;28839;52.404;9.808;2023-04-01T16:55:57;7.00;99.90
43227;DHT22;28839;52.404;9.808;2023-04-01T17:03:07;6.90;99.90
43227;DHT22;28839;52.404;9.808;2023-04-01T17:17:34;6.70;99.90
43227;DHT22;28839;52.404;9.808;2023-04-01T17:24:41;6.70;99.90
43227;DHT22;28839;52.404;9.808;2023-04-01T17:31:49;6.50;99.90
43227;DHT22;28839;52.404;9.808;2023-04-01T17:39:01;6.30;99.90
43227;DHT22;28839;52.404;9.808;2023-04-01T17:46:03;6.20;99.90
43227;DHT22;28839;52.404;9.808;2023-04-01T17:53:11;6.20;99.90
43227;DHT22;28839;52.404;9.808;2023-04-01T18:00:20;6.10;99.90
43227;DHT22;28839;52.404;9.808;2023-04-01T18:14:49;5.80;99.90
43227;DHT22;28839;52.404;9.808;2023-04-01T18:21:46;5.90;99.90
43227;DHT22;28839;52.404;9.808;2023-04-01T18:28:45;5.80;99.90
43227;DHT22;28839;52.404;9.808;2023-04-01T18:35:48;5.80;99.90
43227;DHT22;28839;52.404;9.808;2023-04-01T18:42:53;5.70;99.90
43227;DHT22;28839;52.404;9.808;2023-04-01T18:49:55;5.60;99.90
43227;DHT22;28839;52.404;9.808;2023-04-01T18:57:01;5.50;99.90
43227;DHT22;28839;52.404;9.808;2023-04-01T19:04:03;5.40;99.90
43227;DHT22;28839;52.404;9.808;2023-04-01T19:11:06;5.30;99.90
43227;DHT22;28839;52.404;9.808;2023-04-01T19:25:37;5.30;99.90
43227;DHT22;28839;52.404;9.808;2023-04-01T19:32:42;5.20;99.90
43227;DHT22;28839;52.404;9.808;2023-04-01T19:39:47;5.10;99.90
43227;DHT22;28839;52.404;9.808;2023-04-01T19:46:45;5.00;99.90
43227;DHT22;28839;52.404;9.808;2023-04-01T19:53:47;4.90;99.90
43227;DHT22;28839;52.404;9.808;2023-04-01T20:00:51;4.70;99.90
43227;DHT22;28839;52.404;9.808;2023-04-01T20:07:51;4.60;99.90
43227;DHT22;28839;52.404;9.808;2023-04-01T20:14:48;4.60;99.90
43227;DHT22;28839;52.404;9.808;2023-04-01T20:21:46;4.60;99.90
43227;DHT22;28839;52.404;9.808;2023-04-01T20:28:47;4.60;99.90
43227;DHT22;28839;52.404;9.808;2023-04-01T20:35:52;4.50;99.90
43227;DHT22;28839;52.404;9.808;2023-04-01T20:50:29;4.40;99.90
43227;DHT22;28839;52.404;9.808;2023-04-01T20:57:33;4.20;99.90
43227;DHT22;28839;52.404;9.808;2023-04-01T21:04:40;4.20;99.90
43227;DHT22;28839;52.404;9.808;2023-04-01T21:11:46;4.20;99.90
43227;DHT22;28839;52.404;9.808;2023-04-01T21:18:59;4.20;99.90
43227;DHT22;28839;52.404;9.808;2023-04-01T21:26:19;4.10;99.90
43227;DHT22;28839;52.404;9.808;2023-04-01T21:33:33;4.10;99.90
43227;DHT22;28839;52.404;9.808;2023-04-01T21:40:56;4.00;99.90
43227;DHT22;28839;52.404;9.808;2023-04-01T21:55:49;3.80;99.90
43227;DHT22;28839;52.404;9.808;2023-04-01T22:03:22;3.80;99.90
43227;DHT22;28839;52.404;9.808;2023-04-01T22:10:26;3.70;99.90
43227;DHT22;28839;52.404;9.808;2023-04-01T22:17:27;3.60;99.90
43227;DHT22;28839;52.404;9.808;2023-04-01T22:24:29;3.60;99.90
43227;DHT22;28839;52.404;9.808;2023-04-01T22:31:28;3.50;99.90
43227;DHT22;28839;52.404;9.808;2023-04-01T22:38:39;3.40;99.90
43227;DHT22;28839;52.404;9.808;2023-04-01T22:45:52;3.50;99.90
43227;DHT22;28839;52.404;9.808;2023-04-01T22:52:52;3.30;99.90
43227;DHT22;28839;52.404;9.808;2023-04-01T22:59:52;3.40;99.90
43227;DHT22;28839;52.404;9.808;2023-04-01T23:06:54;3.50;99.90
43227;DHT22;28839;52.404;9.808;2023-04-01T23:13:52;3.20;99.90
43227;DHT22;28839;52.404;9.808;2023-04-01T23:21:02;3.10;99.90
43227;DHT22;28839;52.404;9.808;2023-04-01T23:28:16;3.10;99.90
43227;DHT22;28839;52.404;9.808;2023-04-01T23:35:15;3.10;99.90
43227;DHT22;28839;52.404;9.808;2023-04-01T23:42:17;2.90;99.90
43227;DHT22;28839;52.404;9.808;2023-04-01T23:49:14;2.90;99.90
43227;DHT22;28839;52.404;9.808;2023-04-01T23:56:09;2.80;99.90
